Time;durP1;ratioP1;P1;durP2;ratioP2;P2;SDS_P1;SDS_P2;PMS_P1;PMS_P2;Temp;Humidity;BMP_temperature;BMP_pressure;BME280_temperature;BME280_humidity;BME280_pressure;Samples;Min_cycle;Max_cycle;Signal;HPM_P1;HPM_P2
2022/09/06 00:00:37;;;;;;;5.43;4.80;;;20.80;92.10;;;;;;5031024;28;20382;-57
2022/09/06 00:03:04;;;;;;;5.65;4.45;;;20.80;92.10;;;;;;5008691;28;20038;-57
2022/09/06 00:05:31;;;;;;;7.50;4.85;;;20.70;92.10;;;;;;5026452;28;20052;-57
2022/09/06 00:08:02;;;;;;;5.53;3.90;;;20.70;92.20;;;;;;5028383;28;20115;-57
2022/09/06 00:10:30;;;;;;;5.28;4.40;;;20.70;92.30;;;;;;5034052;28;20041;-57
2022/09/06 00:13:01;;;;;;;5.75;4.40;;;20.70;92.30;;;;;;4985822;28;20132;-57
2022/09/06 00:15:27;;;;;;;6.43;4.50;;;20.70;92.40;;;;;;5039677;28;20048;-57
2022/09/06 00:17:53;;;;;;;6.68;4.35;;;20.60;92.40;;;;;;5031156;28;20102;-57
2022/09/06 00:20:19;;;;;;;6.30;4.20;;;20.50;92.60;;;;;;5032588;28;20074;-57
2022/09/06 00:22:45;;;;;;;7.47;4.65;;;20.50;92.80;;;;;;5029543;28;20053;-57
2022/09/06 00:25:11;;;;;;;8.82;4.95;;;20.40;93.10;;;;;;5022814;28;20059;-56
2022/09/06 00:27:37;;;;;;;8.25;4.68;;;20.30;93.30;;;;;;5028194;28;20076;-57
2022/09/06 00:30:04;;;;;;;5.22;4.70;;;20.20;93.60;;;;;;5030966;28;20163;-60
2022/09/06 00:32:31;;;;;;;6.60;4.85;;;20.20;93.90;;;;;;4996247;28;20158;-45
2022/09/06 00:34:57;;;;;;;7.07;4.80;;;20.20;94.00;;;;;;5028712;28;20155;-44
2022/09/06 00:37:23;;;;;;;7.10;5.07;;;20.10;94.10;;;;;;5024752;28;20056;-45
2022/09/06 00:39:49;;;;;;;9.75;5.32;;;20.10;94.30;;;;;;5030684;28;20060;-47
2022/09/06 00:42:15;;;;;;;9.60;4.60;;;20.00;94.50;;;;;;5011860;28;20064;-57
2022/09/06 00:44:41;;;;;;;6.05;5.38;;;20.00;94.60;;;;;;5031520;28;20048;-61
2022/09/06 00:47:08;;;;;;;7.88;5.45;;;20.00;94.90;;;;;;5047052;28;20542;-57
2022/09/06 00:49:42;;;;;;;8.68;5.18;;;19.90;94.90;;;;;;5028714;28;20052;-58
2022/09/06 00:52:12;;;;;;;8.38;5.43;;;19.80;95.40;;;;;;5034436;28;20049;-57
2022/09/06 00:54:39;;;;;;;6.75;5.15;;;19.80;95.50;;;;;;5030167;28;20049;-57
2022/09/06 00:57:06;;;;;;;6.10;5.03;;;19.70;95.70;;;;;;5050765;28;20049;-57
2022/09/06 00:59:34;;;;;;;7.60;5.50;;;19.70;95.90;;;;;;5033246;28;20080;-57
2022/09/06 01:02:00;;;;;;;6.05;5.38;;;19.70;96.30;;;;;;5029682;28;20045;-45
2022/09/06 01:04:28;;;;;;;6.30;5.13;;;19.60;96.70;;;;;;5050431;28;20040;-43
2022/09/06 01:07:03;;;;;;;6.75;5.03;;;19.60;97.20;;;;;;5035443;28;20075;-43
2022/09/06 01:10:06;;;;;;;7.38;5.30;;;19.50;97.20;;;;;;5034527;28;20037;-45
2022/09/06 01:13:08;;;;;;;6.30;5.10;;;19.50;97.90;;;;;;5033230;28;20060;-42
2022/09/06 01:15:41;;;;;;;7.50;5.28;;;19.50;98.30;;;;;;5044678;28;20269;-57
2022/09/06 01:18:20;;;;;;;7.78;4.70;;;19.50;98.30;;;;;;5034068;28;20123;-57
2022/09/06 01:20:59;;;;;;;5.45;4.63;;;19.50;98.50;;;;;;5032190;28;20052;-57
2022/09/06 01:23:44;;;;;;;5.47;4.97;;;19.50;98.40;;;;;;5031155;28;20397;-57
2022/09/06 01:26:45;;;;;;;7.07;4.70;;;19.50;98.60;;;;;;5033155;28;20041;-58
2022/09/06 01:29:47;;;;;;;6.68;5.35;;;19.50;99.40;;;;;;5034380;28;20558;-58
2022/09/06 01:32:54;;;;;;;6.93;4.80;;;19.50;99.50;;;;;;5022038;28;20052;-57
2022/09/06 01:35:37;;;;;;;7.78;4.82;;;19.50;99.40;;;;;;4994887;28;20063;-44
2022/09/06 01:38:05;;;;;;;7.10;4.90;;;19.50;99.50;;;;;;5044034;28;20381;-57
2022/09/06 01:40:35;;;;;;;5.35;4.50;;;19.50;99.50;;;;;;5044809;28;20044;-57
2022/09/06 01:43:04;;;;;;;6.05;4.95;;;19.40;99.60;;;;;;5034501;28;20051;-58
2022/09/06 01:45:55;;;;;;;8.30;5.97;;;19.40;99.80;;;;;;5035471;28;20041;-58
2022/09/06 01:48:36;;;;;;;7.35;5.90;;;19.30;99.90;;;;;;5034351;28;20041;-49
2022/09/06 01:51:20;;;;;;;9.43;5.97;;;19.30;99.90;;;;;;5025369;28;20140;-47
2022/09/06 01:54:16;;;;;;;8.27;6.07;;;19.30;99.90;;;;;;5029887;28;20509;-45
2022/09/06 01:57:26;;;;;;;8.95;6.20;;;19.30;99.90;;;;;;5031931;28;20049;-44
2022/09/06 01:59:52;;;;;;;8.05;6.72;;;19.20;99.90;;;;;;5037780;28;20392;-46
2022/09/06 02:02:45;;;;;;;6.88;6.28;;;19.20;99.90;;;;;;5034284;28;20049;-47
2022/09/06 02:05:47;;;;;;;8.77;7.10;;;19.20;99.90;;;;;;5041170;28;20135;-48
2022/09/06 02:08:21;;;;;;;8.40;6.30;;;19.20;99.90;;;;;;5008214;28;20057;-48
2022/09/06 02:10:54;;;;;;;7.15;5.90;;;19.20;99.90;;;;;;5028623;28;20475;-48
2022/09/06 02:13:22;;;;;;;9.40;5.95;;;19.20;99.90;;;;;;5041357;28;20071;-44
2022/09/06 02:15:59;;;;;;;9.00;5.82;;;19.10;99.90;;;;;;5043650;28;20049;-47
2022/09/06 02:18:59;;;;;;;8.18;6.05;;;19.10;99.90;;;;;;5027870;28;20107;-49
2022/09/06 02:21:30;;;;;;;7.15;6.05;;;19.10;99.90;;;;;;5045449;28;20052;-57
2022/09/06 02:24:00;;;;;;;6.90;5.63;;;19.10;99.90;;;;;;5050542;28;20528;-57
2022/09/06 02:26:31;;;;;;;10.20;6.40;;;19.10;99.90;;;;;;5024483;28;20060;-44
2022/09/06 02:28:57;;;;;;;8.65;5.85;;;19.10;99.90;;;;;;5032706;28;20072;-44
2022/09/06 02:31:43;;;;;;;6.78;6.00;;;19.10;99.90;;;;;;5045750;28;20053;-44
2022/09/06 02:34:13;;;;;;;8.30;6.07;;;19.10;99.90;;;;;;5033315;28;20059;-47
2022/09/06 02:36:39;;;;;;;7.00;5.72;;;19.10;99.90;;;;;;5035203;28;20040;-57
2022/09/06 02:39:06;;;;;;;7.45;6.00;;;19.10;99.90;;;;;;5027496;28;20556;-57
2022/09/06 02:41:33;;;;;;;7.00;5.57;;;19.10;99.90;;;;;;5027348;28;20060;-45
2022/09/06 02:43:59;;;;;;;6.97;5.38;;;19.10;99.90;;;;;;5033971;28;20497;-52
2022/09/06 02:46:25;;;;;;;10.57;6.00;;;19.10;99.90;;;;;;5030712;28;20128;-45
2022/09/06 02:48:51;;;;;;;7.72;6.10;;;19.00;99.90;;;;;;5030821;28;20409;-45
2022/09/06 02:51:17;;;;;;;8.40;6.13;;;19.00;99.90;;;;;;5025815;28;20446;-46
2022/09/06 02:53:43;;;;;;;8.75;6.07;;;19.00;99.90;;;;;;5044516;28;20396;-46
2022/09/06 02:56:09;;;;;;;6.95;6.25;;;19.00;99.90;;;;;;5044790;28;20048;-48
2022/09/06 02:58:35;;;;;;;6.63;5.93;;;18.90;99.90;;;;;;5031762;28;20045;-44
2022/09/06 03:01:01;;;;;;;7.32;6.63;;;18.90;99.90;;;;;;5045842;28;20084;-44
2022/09/06 03:03:28;;;;;;;7.78;6.50;;;18.90;99.90;;;;;;5032379;28;20582;-46
2022/09/06 03:05:55;;;;;;;6.97;6.30;;;18.90;99.90;;;;;;5013163;28;20440;-44
2022/09/06 03:08:25;;;;;;;12.25;6.78;;;18.90;99.90;;;;;;5018902;28;20520;-44
2022/09/06 03:10:55;;;;;;;7.43;6.70;;;18.90;99.90;;;;;;5032428;28;20105;-46
2022/09/06 03:13:23;;;;;;;7.72;6.95;;;18.80;99.90;;;;;;5017616;28;20139;-45
2022/09/06 03:15:53;;;;;;;10.35;6.93;;;18.80;99.90;;;;;;5033875;28;20161;-45
2022/09/06 03:18:19;;;;;;;6.90;6.20;;;18.80;99.90;;;;;;5028723;28;20048;-45
2022/09/06 03:20:48;;;;;;;7.55;6.55;;;18.80;99.90;;;;;;5037271;28;20496;-44
2022/09/06 03:23:15;;;;;;;7.30;6.55;;;18.70;99.90;;;;;;5030991;28;20178;-51
2022/09/06 03:25:42;;;;;;;7.88;7.10;;;18.80;99.90;;;;;;5048532;28;20551;-49
2022/09/06 03:28:08;;;;;;;7.78;6.97;;;18.70;99.90;;;;;;5029226;28;20445;-45
2022/09/06 03:30:34;;;;;;;7.57;6.80;;;18.70;99.90;;;;;;4998220;28;20347;-46
2022/09/06 03:33:00;;;;;;;9.13;6.82;;;18.70;99.90;;;;;;5044523;28;20071;-45
2022/09/06 03:35:26;;;;;;;10.73;6.63;;;18.70;99.90;;;;;;5029539;28;20056;-43
2022/09/06 03:37:52;;;;;;;7.68;6.50;;;18.70;99.90;;;;;;5029728;28;20693;-46
2022/09/06 03:40:18;;;;;;;8.02;6.85;;;18.70;99.90;;;;;;5030897;28;20043;-47
2022/09/06 03:42:45;;;;;;;7.32;6.63;;;18.60;99.90;;;;;;5029228;28;20065;-48
2022/09/06 03:45:12;;;;;;;10.48;6.55;;;18.60;99.90;;;;;;5027790;28;20053;-44
2022/09/06 03:47:38;;;;;;;9.77;7.03;;;18.60;99.90;;;;;;5026641;28;20087;-46
2022/09/06 03:50:06;;;;;;;8.85;6.47;;;18.60;99.90;;;;;;5033593;28;20662;-56
2022/09/06 03:52:32;;;;;;;10.35;6.45;;;18.60;99.90;;;;;;5030200;28;20121;-57
2022/09/06 03:54:58;;;;;;;9.05;6.97;;;18.70;99.90;;;;;;5033093;28;20049;-57
2022/09/06 03:57:24;;;;;;;7.95;7.10;;;18.70;99.90;;;;;;5031828;28;20404;-58
2022/09/06 03:59:50;;;;;;;9.20;6.55;;;18.60;99.90;;;;;;5031171;28;20496;-56
2022/09/06 04:02:16;;;;;;;9.50;7.05;;;18.70;99.90;;;;;;5024721;28;20049;-59
2022/09/06 04:04:42;;;;;;;9.35;6.85;;;18.70;99.90;;;;;;5031739;28;20504;-56
2022/09/06 04:07:09;;;;;;;7.55;6.85;;;18.70;99.90;;;;;;5030623;28;20134;-57
2022/09/06 04:09:35;;;;;;;8.88;6.95;;;18.70;99.90;;;;;;5044127;28;20116;-57
2022/09/06 04:12:01;;;;;;;8.98;7.35;;;18.70;99.90;;;;;;5034093;28;20161;-57
2022/09/06 04:14:27;;;;;;;9.35;6.80;;;18.70;99.90;;;;;;5022197;28;20743;-44
2022/09/06 04:16:53;;;;;;;11.18;7.57;;;18.80;99.90;;;;;;5024825;28;20729;-44
2022/09/06 04:19:19;;;;;;;7.43;6.72;;;18.80;99.90;;;;;;5026147;28;20363;-46
2022/09/06 04:21:45;;;;;;;8.00;7.20;;;18.80;99.90;;;;;;5041400;28;21519;-45
2022/09/06 04:24:11;;;;;;;8.80;7.30;;;18.80;99.90;;;;;;5042901;28;20115;-57
2022/09/06 04:26:37;;;;;;;7.32;6.72;;;18.80;99.90;;;;;;5015915;28;20077;-58
2022/09/06 04:29:04;;;;;;;9.13;7.03;;;18.90;99.90;;;;;;5034448;28;20557;-58
2022/09/06 04:31:30;;;;;;;7.68;6.97;;;18.90;99.90;;;;;;5021686;28;20497;-57
2022/09/06 04:33:56;;;;;;;10.02;7.05;;;18.90;99.90;;;;;;5041261;28;20053;-57
2022/09/06 04:36:22;;;;;;;8.27;7.05;;;18.90;99.90;;;;;;5029821;28;20111;-58
2022/09/06 04:38:48;;;;;;;9.07;7.25;;;18.90;99.90;;;;;;5024049;28;20050;-58
2022/09/06 04:41:17;;;;;;;8.80;7.32;;;18.90;99.90;;;;;;5016071;28;20072;-58
2022/09/06 04:43:43;;;;;;;9.93;8.00;;;18.90;99.90;;;;;;5043721;28;20420;-46
2022/09/06 04:46:20;;;;;;;9.23;8.43;;;18.90;99.90;;;;;;5032767;28;20048;-57
2022/09/06 04:48:47;;;;;;;9.55;8.60;;;18.90;99.90;;;;;;5031118;28;20729;-58
2022/09/06 04:51:14;;;;;;;11.52;9.60;;;18.80;99.90;;;;;;5042087;28;20032;-58
2022/09/06 04:53:40;;;;;;;11.05;9.60;;;18.80;99.90;;;;;;5034822;28;20456;-58
2022/09/06 04:56:10;;;;;;;9.55;8.65;;;18.70;99.90;;;;;;5006411;28;20041;-57
2022/09/06 04:58:36;;;;;;;10.13;9.20;;;18.70;99.90;;;;;;5040676;28;20045;-55
2022/09/06 05:01:02;;;;;;;10.30;9.40;;;18.70;99.90;;;;;;5042834;28;20103;-57
2022/09/06 05:03:28;;;;;;;11.27;9.48;;;18.60;99.90;;;;;;5027713;28;20124;-58
2022/09/06 05:06:07;;;;;;;14.27;10.90;;;18.60;99.90;;;;;;5009712;28;20046;-58
2022/09/06 05:08:36;;;;;;;11.15;10.07;;;18.50;99.90;;;;;;5043668;28;20497;-57
2022/09/06 05:11:02;;;;;;;13.77;10.98;;;18.50;99.90;;;;;;5031525;28;20053;-56
2022/09/06 05:13:28;;;;;;;11.20;10.10;;;18.50;99.90;;;;;;5033367;28;20512;-56
2022/09/06 05:15:54;;;;;;;12.32;11.07;;;18.50;99.90;;;;;;5030209;28;20519;-56
2022/09/06 05:18:20;;;;;;;12.25;11.02;;;18.40;99.90;;;;;;5053800;28;20044;-56
2022/09/06 05:20:53;;;;;;;12.30;11.10;;;18.30;99.90;;;;;;5021431;28;119108;-60
2022/09/06 05:23:20;;;;;;;13.23;11.35;;;18.20;99.90;;;;;;5045788;28;20052;-58
2022/09/06 05:25:47;;;;;;;13.25;11.95;;;18.20;99.90;;;;;;5047018;28;20045;-55
2022/09/06 05:28:14;;;;;;;14.93;11.85;;;18.10;99.90;;;;;;5029124;28;20037;-53
2022/09/06 05:30:41;;;;;;;14.98;12.93;;;18.10;99.90;;;;;;5034126;28;20098;-44
2022/09/06 05:33:08;;;;;;;13.43;12.20;;;18.10;99.90;;;;;;5031869;28;20087;-44
2022/09/06 05:35:34;;;;;;;13.32;12.07;;;18.10;99.90;;;;;;5027500;28;20045;-46
2022/09/06 05:38:00;;;;;;;15.40;14.10;;;18.00;99.90;;;;;;5026928;28;20562;-53
2022/09/06 05:40:26;;;;;;;14.13;12.93;;;18.00;99.90;;;;;;5031478;28;20102;-50
2022/09/06 05:42:53;;;;;;;14.45;13.18;;;18.00;99.90;;;;;;5014738;28;20067;-53
2022/09/06 05:45:19;;;;;;;13.82;12.50;;;18.10;99.90;;;;;;5044373;28;20064;-50
2022/09/06 05:47:45;;;;;;;13.88;12.45;;;18.10;99.90;;;;;;5033413;28;20053;-61
2022/09/06 05:50:11;;;;;;;13.98;12.77;;;18.00;99.90;;;;;;5046741;28;20053;-55
2022/09/06 05:52:38;;;;;;;13.95;12.25;;;18.00;99.90;;;;;;5030917;28;20121;-42
2022/09/06 05:55:06;;;;;;;15.35;13.80;;;18.00;99.90;;;;;;5027469;28;20072;-43
2022/09/06 05:57:32;;;;;;;14.25;13.05;;;18.00;99.90;;;;;;5023564;28;20037;-43
2022/09/06 05:59:58;;;;;;;15.10;13.65;;;17.90;99.90;;;;;;5029534;28;20045;-45
2022/09/06 06:02:24;;;;;;;14.63;13.18;;;17.90;99.90;;;;;;5040582;28;20406;-45
2022/09/06 06:04:51;;;;;;;13.93;12.45;;;17.80;99.90;;;;;;5045258;28;20482;-44
2022/09/06 06:07:17;;;;;;;14.25;13.02;;;17.80;99.90;;;;;;5013428;28;20056;-57
2022/09/06 06:09:43;;;;;;;15.10;13.70;;;17.80;99.90;;;;;;5016474;28;20081;-58
2022/09/06 06:12:09;;;;;;;16.02;14.25;;;17.80;99.90;;;;;;5033065;28;20418;-57
2022/09/06 06:14:35;;;;;;;14.55;13.45;;;17.80;99.90;;;;;;5027564;28;20136;-58
2022/09/06 06:17:02;;;;;;;14.55;13.45;;;17.90;99.90;;;;;;5046144;28;20048;-56
2022/09/06 06:19:28;;;;;;;14.35;13.02;;;17.90;99.90;;;;;;5036808;28;20128;-56
2022/09/06 06:21:55;;;;;;;14.75;13.52;;;18.00;99.90;;;;;;5027153;28;20162;-42
2022/09/06 06:24:21;;;;;;;14.98;13.57;;;18.10;99.90;;;;;;5029545;28;20044;-42
2022/09/06 06:26:47;;;;;;;15.85;14.55;;;18.20;99.90;;;;;;5029419;28;20163;-46
2022/09/06 06:29:13;;;;;;;15.07;13.77;;;18.20;99.90;;;;;;5026255;28;20075;-46
2022/09/06 06:31:40;;;;;;;15.15;13.63;;;18.20;99.90;;;;;;5031254;28;20103;-42
2022/09/06 06:34:07;;;;;;;14.88;13.48;;;18.30;99.90;;;;;;5030061;28;20471;-45
2022/09/06 06:36:35;;;;;;;14.90;13.60;;;18.20;99.90;;;;;;5033795;28;20566;-47
2022/09/06 06:39:04;;;;;;;14.63;13.43;;;18.30;99.90;;;;;;5046212;28;20049;-44
2022/09/06 06:41:31;;;;;;;14.82;13.45;;;18.30;99.90;;;;;;5045419;28;20673;-46
2022/09/06 06:44:01;;;;;;;22.00;19.83;;;18.30;99.90;;;;;;5036027;28;20498;-58
2022/09/06 06:46:32;;;;;;;16.20;14.90;;;18.30;99.90;;;;;;5014378;28;20054;-58
2022/09/06 06:48:59;;;;;;;15.07;13.68;;;18.40;99.90;;;;;;5027633;28;20072;-58
2022/09/06 06:51:27;;;;;;;16.02;14.45;;;18.50;99.90;;;;;;5030380;28;20175;-57
2022/09/06 06:53:55;;;;;;;16.33;14.93;;;18.50;99.90;;;;;;5013837;28;20076;-58
2022/09/06 06:56:25;;;;;;;16.02;14.63;;;18.60;99.90;;;;;;5017416;28;20052;-58
2022/09/06 06:58:53;;;;;;;17.45;15.45;;;18.70;99.90;;;;;;5014324;28;20408;-58
2022/09/06 07:01:20;;;;;;;19.85;18.15;;;18.80;99.90;;;;;;5030965;28;20048;-51
2022/09/06 07:03:47;;;;;;;18.02;16.42;;;18.90;99.90;;;;;;5034139;28;20055;-44
2022/09/06 07:06:14;;;;;;;16.02;14.43;;;19.00;99.90;;;;;;5047844;28;20127;-45
2022/09/06 07:08:41;;;;;;;16.65;15.13;;;19.10;99.90;;;;;;5017006;28;20161;-44
2022/09/06 07:11:09;;;;;;;16.15;14.65;;;19.10;99.90;;;;;;5031739;28;20571;-58
2022/09/06 07:13:36;;;;;;;20.05;18.23;;;19.30;99.90;;;;;;5035608;28;20048;-57
2022/09/06 07:16:19;;;;;;;18.55;16.88;;;19.30;99.90;;;;;;5043602;28;20049;-45
2022/09/06 07:18:46;;;;;;;14.38;13.15;;;19.50;99.90;;;;;;5000337;28;20588;-44
2022/09/06 07:21:15;;;;;;;15.35;13.13;;;19.60;99.90;;;;;;5029488;28;20053;-44
2022/09/06 07:23:42;;;;;;;14.32;12.95;;;19.80;99.90;;;;;;5014212;28;20056;-47
2022/09/06 07:26:14;;;;;;;13.55;12.45;;;19.90;99.90;;;;;;5033616;28;20055;-46
2022/09/06 07:28:40;;;;;;;13.68;12.40;;;20.20;99.90;;;;;;5030072;28;20574;-47
2022/09/06 07:31:07;;;;;;;18.30;16.67;;;20.40;99.90;;;;;;5046398;28;20044;-49
2022/09/06 07:33:37;;;;;;;15.23;13.77;;;20.50;99.90;;;;;;5035712;28;20052;-47
2022/09/06 07:36:06;;;;;;;14.10;12.80;;;20.60;99.90;;;;;;5033434;28;20123;-55
2022/09/06 07:38:33;;;;;;;13.75;12.05;;;20.80;99.90;;;;;;5033588;28;20049;-51
2022/09/06 07:41:01;;;;;;;12.57;11.30;;;21.10;99.90;;;;;;5027204;28;20040;-50
2022/09/06 07:43:28;;;;;;;12.02;10.90;;;21.90;99.90;;;;;;5045196;28;20095;-46
2022/09/06 07:45:59;;;;;;;20.85;18.95;;;22.30;99.90;;;;;;5013503;28;20413;-58
2022/09/06 07:48:28;;;;;;;12.25;10.85;;;23.00;99.90;;;;;;5028092;28;20051;-57
2022/09/06 07:50:54;;;;;;;11.25;10.25;;;23.40;99.90;;;;;;5037558;28;20121;-49
2022/09/06 07:53:20;;;;;;;14.65;13.35;;;23.60;99.90;;;;;;5028576;28;20049;-50
2022/09/06 07:55:46;;;;;;;11.43;9.80;;;24.00;99.90;;;;;;5031654;28;20063;-47
2022/09/06 07:58:12;;;;;;;11.45;9.85;;;24.00;99.90;;;;;;5035959;28;20049;-53
2022/09/06 08:00:39;;;;;;;12.77;11.57;;;23.70;99.90;;;;;;5035811;28;20098;-49
2022/09/06 08:03:06;;;;;;;9.98;9.07;;;23.90;99.90;;;;;;5035021;28;20045;-58
2022/09/06 08:05:32;;;;;;;15.52;13.88;;;24.30;99.90;;;;;;5031243;28;20594;-57
2022/09/06 08:07:58;;;;;;;12.48;11.27;;;24.80;99.90;;;;;;5033633;28;20461;-57
2022/09/06 08:10:24;;;;;;;10.70;8.55;;;25.10;99.90;;;;;;5017229;28;20060;-46
2022/09/06 08:12:53;;;;;;;10.27;8.80;;;25.80;99.90;;;;;;5038227;28;20323;-48
2022/09/06 08:15:20;;;;;;;9.80;8.90;;;26.00;99.90;;;;;;5031953;28;20413;-57
2022/09/06 08:17:50;;;;;;;9.93;8.75;;;26.10;99.90;;;;;;5034155;28;20520;-58
2022/09/06 08:20:16;;;;;;;9.68;8.68;;;26.10;99.90;;;;;;5043662;28;20122;-58
2022/09/06 08:22:42;;;;;;;8.95;8.15;;;26.50;99.50;;;;;;5048062;28;20056;-58
2022/09/06 08:25:09;;;;;;;9.30;8.50;;;26.50;98.20;;;;;;5051175;28;20052;-57
2022/09/06 08:27:35;;;;;;;11.85;8.43;;;26.50;97.10;;;;;;5020580;28;20381;-57
2022/09/06 08:30:01;;;;;;;9.18;8.20;;;26.40;96.90;;;;;;4986080;28;20049;-48
2022/09/06 08:32:27;;;;;;;11.10;9.52;;;27.00;96.20;;;;;;5029169;28;20052;-47
2022/09/06 08:34:54;;;;;;;9.68;8.68;;;27.50;97.00;;;;;;5032837;28;20443;-48
2022/09/06 08:37:20;;;;;;;11.57;7.72;;;28.20;96.00;;;;;;4986031;28;20040;-48
2022/09/06 08:39:46;;;;;;;7.95;7.15;;;28.50;94.80;;;;;;5028101;28;20048;-50
2022/09/06 08:42:12;;;;;;;10.18;7.60;;;28.90;93.60;;;;;;5035818;28;20500;-48
2022/09/06 08:44:42;;;;;;;9.45;6.75;;;29.20;91.70;;;;;;5032033;28;20555;-58
2022/09/06 08:47:11;;;;;;;7.47;6.78;;;29.40;91.50;;;;;;5035405;28;20353;-58
2022/09/06 08:49:55;;;;;;;9.15;7.13;;;29.40;90.40;;;;;;5036194;28;20106;-57
2022/09/06 08:52:40;;;;;;;9.95;6.25;;;29.10;86.50;;;;;;5047774;28;20592;-57
2022/09/06 08:55:25;;;;;;;8.02;6.95;;;29.10;87.50;;;;;;5030140;28;20119;-58
2022/09/06 08:58:20;;;;;;;9.40;7.32;;;29.40;87.00;;;;;;5033083;28;20470;-58
2022/09/06 09:01:01;;;;;;;7.07;6.35;;;29.80;83.20;;;;;;5035257;28;20123;-48
2022/09/06 09:03:36;;;;;;;9.57;6.57;;;29.60;83.00;;;;;;5011444;28;20055;-49
2022/09/06 09:06:04;;;;;;;9.38;6.60;;;29.90;82.80;;;;;;5031595;28;20054;-50
2022/09/06 09:08:36;;;;;;;8.00;6.78;;;29.80;83.30;;;;;;5030907;28;20059;-45
2022/09/06 09:11:10;;;;;;;6.80;6.20;;;29.80;81.30;;;;;;5048425;28;20052;-44
2022/09/06 09:13:39;;;;;;;7.55;6.05;;;30.60;79.30;;;;;;5035050;28;20373;-48
2022/09/06 09:16:05;;;;;;;6.18;5.57;;;30.60;78.00;;;;;;5036161;28;20040;-50
2022/09/06 09:18:35;;;;;;;9.73;5.55;;;30.60;75.50;;;;;;5029644;28;20048;-58
2022/09/06 09:21:02;;;;;;;8.77;5.20;;;30.70;74.10;;;;;;5031328;28;20070;-58
2022/09/06 09:23:29;;;;;;;7.80;4.55;;;30.40;73.10;;;;;;5035548;28;20051;-49
2022/09/06 09:26:01;;;;;;;8.43;6.25;;;30.80;72.90;;;;;;5032632;28;20049;-50
2022/09/06 09:28:27;;;;;;;7.35;5.80;;;30.70;72.10;;;;;;5029448;28;20128;-47
2022/09/06 09:30:55;;;;;;;7.03;5.43;;;30.50;71.70;;;;;;5043572;28;20052;-45
2022/09/06 09:33:37;;;;;;;7.85;5.55;;;30.90;70.60;;;;;;5045211;28;20045;-50
2022/09/06 09:36:12;;;;;;;6.80;5.10;;;30.60;70.40;;;;;;5034949;28;20060;-58
2022/09/06 09:38:48;;;;;;;6.75;5.68;;;30.70;69.60;;;;;;5032157;28;20099;-58
2022/09/06 09:41:33;;;;;;;10.27;5.65;;;30.60;68.70;;;;;;5046643;28;20045;-58
2022/09/06 09:44:06;;;;;;;7.57;5.78;;;30.90;68.40;;;;;;5016124;28;20530;-58
2022/09/06 09:46:34;;;;;;;5.97;5.30;;;30.70;68.80;;;;;;5035482;28;20531;-58
2022/09/06 09:49:27;;;;;;;6.72;5.53;;;31.30;69.50;;;;;;5032144;28;20048;-58
2022/09/06 09:52:09;;;;;;;6.43;5.78;;;31.60;68.00;;;;;;5018782;28;20048;-58
2022/09/06 09:54:38;;;;;;;6.28;4.50;;;31.60;68.00;;;;;;5034054;28;20049;-56
2022/09/06 09:57:09;;;;;;;5.35;4.43;;;31.80;68.10;;;;;;5036503;28;20284;-56
2022/09/06 09:59:35;;;;;;;6.72;4.25;;;32.20;67.10;;;;;;5034766;28;20041;-58
2022/09/06 10:02:34;;;;;;;6.78;6.07;;;32.40;65.70;;;;;;5033854;28;20073;-58
2022/09/06 10:05:08;;;;;;;6.47;5.47;;;32.30;64.30;;;;;;5019920;28;20052;-58
2022/09/06 10:07:46;;;;;;;7.07;5.30;;;32.50;64.20;;;;;;5035493;28;20346;-49
2022/09/06 10:10:19;;;;;;;8.07;5.75;;;32.50;64.80;;;;;;5012723;28;20057;-45
2022/09/06 10:12:45;;;;;;;7.55;5.72;;;32.20;64.30;;;;;;5036141;28;20397;-45
2022/09/06 10:15:31;;;;;;;8.52;6.13;;;32.10;63.80;;;;;;5035390;28;20218;-48
2022/09/06 10:17:57;;;;;;;11.75;7.13;;;32.60;63.30;;;;;;5032676;28;20048;-45
2022/09/06 10:20:33;;;;;;;7.55;6.72;;;32.50;63.50;;;;;;5029773;28;20049;-49
2022/09/06 10:22:59;;;;;;;7.78;7.03;;;32.70;64.50;;;;;;5032715;28;20113;-47
2022/09/06 10:25:39;;;;;;;9.90;7.53;;;32.80;63.60;;;;;;5035559;28;20052;-48
2022/09/06 10:28:33;;;;;;;7.10;6.50;;;32.70;63.00;;;;;;5049029;28;20072;-48
2022/09/06 10:31:24;;;;;;;9.25;6.85;;;32.90;64.40;;;;;;5015977;28;20520;-46
2022/09/06 10:34:08;;;;;;;8.75;7.20;;;32.80;62.90;;;;;;5032690;28;20430;-58
2022/09/06 10:36:54;;;;;;;9.02;8.23;;;33.20;63.60;;;;;;5029311;28;20388;-57
2022/09/06 10:39:55;;;;;;;8.15;6.32;;;32.80;62.80;;;;;;5031540;28;20041;-57
2022/09/06 10:42:28;;;;;;;8.45;6.88;;;33.00;61.80;;;;;;5028716;28;20053;-57
2022/09/06 10:45:31;;;;;;;6.70;6.00;;;33.20;61.90;;;;;;5039846;28;20503;-57
2022/09/06 10:48:03;;;;;;;7.53;6.10;;;33.00;61.20;;;;;;5033439;28;20049;-58
2022/09/06 10:50:48;;;;;;;8.52;6.93;;;33.20;61.00;;;;;;5029902;28;20404;-58
2022/09/06 10:53:20;;;;;;;6.75;5.70;;;33.50;60.10;;;;;;5033557;28;20036;-58
2022/09/06 10:55:56;;;;;;;7.32;6.38;;;33.50;60.40;;;;;;5029377;28;20049;-58
2022/09/06 10:58:27;;;;;;;7.43;6.25;;;33.50;58.70;;;;;;5033723;28;20106;-58
2022/09/06 11:00:54;;;;;;;8.70;6.18;;;33.60;59.30;;;;;;5049011;28;20045;-46
2022/09/06 11:03:39;;;;;;;6.72;5.72;;;33.30;59.00;;;;;;5038923;28;20041;-44
2022/09/06 11:06:11;;;;;;;7.65;4.97;;;33.60;58.50;;;;;;5017135;28;20063;-58
2022/09/06 11:08:49;;;;;;;5.82;5.22;;;33.80;59.00;;;;;;5035318;28;20063;-58
2022/09/06 11:11:34;;;;;;;7.80;7.00;;;33.30;58.30;;;;;;5032910;28;20084;-58
2022/09/06 11:14:06;;;;;;;8.85;5.43;;;33.20;58.50;;;;;;5036664;28;20504;-58
2022/09/06 11:16:41;;;;;;;6.68;6.07;;;33.90;58.40;;;;;;5049031;28;20491;-49
2022/09/06 11:19:21;;;;;;;6.60;6.00;;;33.70;57.20;;;;;;5031221;28;20052;-46
2022/09/06 11:22:06;;;;;;;8.40;5.50;;;34.00;57.60;;;;;;5032255;28;20123;-58
2022/09/06 11:24:48;;;;;;;8.15;6.47;;;34.00;58.10;;;;;;5044445;28;20084;-47
2022/09/06 11:27:32;;;;;;;7.78;6.70;;;34.10;55.70;;;;;;5030715;28;20665;-59
2022/09/06 11:30:01;;;;;;;8.55;5.72;;;34.00;55.70;;;;;;5031157;28;20640;-59
2022/09/06 11:32:47;;;;;;;5.85;4.78;;;34.40;55.60;;;;;;5029743;28;20125;-58
2022/09/06 11:35:32;;;;;;;6.32;4.70;;;34.50;55.60;;;;;;5031820;28;20455;-58
2022/09/06 11:38:04;;;;;;;5.60;4.68;;;34.30;54.10;;;;;;5027385;28;20530;-47
2022/09/06 11:40:43;;;;;;;6.53;4.32;;;34.40;54.80;;;;;;5027822;28;20080;-58
2022/09/06 11:43:16;;;;;;;6.18;4.32;;;34.60;54.80;;;;;;5034236;28;20445;-46
2022/09/06 11:45:46;;;;;;;5.53;4.15;;;34.50;54.20;;;;;;5045515;28;20463;-47
2022/09/06 11:48:34;;;;;;;5.85;4.88;;;34.80;53.60;;;;;;5027331;28;20167;-45
2022/09/06 11:51:09;;;;;;;5.60;4.30;;;34.50;53.20;;;;;;5036857;28;20044;-59
2022/09/06 11:53:56;;;;;;;5.55;4.57;;;34.30;53.70;;;;;;5033338;28;20045;-60
2022/09/06 11:56:40;;;;;;;5.55;4.25;;;34.00;53.60;;;;;;5033888;28;20511;-59
2022/09/06 11:59:16;;;;;;;7.82;5.30;;;35.00;54.30;;;;;;5034834;28;20076;-59
2022/09/06 12:02:00;;;;;;;5.90;4.18;;;34.50;52.20;;;;;;5030334;28;20056;-59
2022/09/06 12:05:00;;;;;;;8.50;5.57;;;34.70;53.00;;;;;;5029993;28;20053;-58
2022/09/06 12:07:28;;;;;;;7.22;3.83;;;34.60;52.80;;;;;;5030833;28;20449;-59
2022/09/06 12:09:54;;;;;;;6.80;3.70;;;34.50;52.80;;;;;;5033607;28;20132;-47
2022/09/06 12:12:49;;;;;;;4.57;3.65;;;34.50;52.20;;;;;;5032928;28;20052;-45
2022/09/06 12:15:26;;;;;;;5.40;4.28;;;34.30;51.80;;;;;;5035471;28;20059;-48
2022/09/06 12:17:52;;;;;;;7.03;4.70;;;35.00;52.30;;;;;;5032165;28;20650;-47
2022/09/06 12:20:53;;;;;;;4.32;3.92;;;34.80;51.40;;;;;;5031378;28;20044;-46
2022/09/06 12:23:34;;;;;;;6.40;4.18;;;34.80;52.20;;;;;;5034857;28;20049;-46
2022/09/06 12:26:05;;;;;;;5.45;4.28;;;34.80;52.00;;;;;;5031047;28;20048;-45
2022/09/06 12:28:48;;;;;;;7.07;4.60;;;34.50;51.90;;;;;;5044864;28;20076;-47
2022/09/06 12:31:37;;;;;;;5.60;3.95;;;34.60;51.60;;;;;;5015952;28;20094;-47
2022/09/06 12:34:11;;;;;;;7.28;3.75;;;34.90;52.50;;;;;;5026647;28;20099;-48
2022/09/06 12:36:51;;;;;;;5.30;3.80;;;35.10;51.60;;;;;;5043178;28;20046;-46
2022/09/06 12:39:20;;;;;;;6.70;3.47;;;34.90;51.40;;;;;;5031213;28;20515;-50
2022/09/06 12:41:50;;;;;;;6.18;4.50;;;35.10;51.50;;;;;;5014674;28;21206;-45
2022/09/06 12:44:20;;;;;;;5.18;3.97;;;34.70;51.10;;;;;;5029608;28;20083;-44
2022/09/06 12:46:47;;;;;;;;;;;34.80;50.80;;;;;;5036663;28;20899;-48
2022/09/06 12:49:22;;;;;;;3.85;3.45;;;34.00;51.90;;;;;;5014556;28;20307;-46
2022/09/06 12:51:48;;;;;;;6.22;3.20;;;33.90;51.40;;;;;;5034505;28;20040;-47
2022/09/06 12:54:23;;;;;;;4.53;4.05;;;33.60;52.10;;;;;;5034894;28;20076;-44
2022/09/06 12:56:51;;;;;;;4.82;2.90;;;33.90;52.50;;;;;;5040841;28;20054;-45
2022/09/06 12:59:23;;;;;;;5.00;3.03;;;34.30;52.40;;;;;;5015597;28;20052;-48
2022/09/06 13:01:55;;;;;;;6.68;2.90;;;34.50;52.40;;;;;;5035441;28;20076;-47
2022/09/06 13:04:29;;;;;;;3.80;2.80;;;34.50;51.60;;;;;;5031561;28;20057;-59